sensor_id;sensor_type;location;lat;lon;timestamp;P1;durP1;ratioP1;P2;durP2;ratioP2
51686;SDS011;37774;52.192;4.584;2023-04-03T00:01:20;2.55;;;1.02;;
51686;SDS011;37774;52.192;4.584;2023-04-03T00:04:05;4.57;;;1.40;;
51686;SDS011;37774;52.192;4.584;2023-04-03T00:06:51;5.68;;;1.00;;
51686;SDS011;37774;52.192;4.584;2023-04-03T00:09:36;4.78;;;1.35;;
51686;SDS011;37774;52.192;4.584;2023-04-03T00:12:22;1.23;;;0.80;;
51686;SDS011;37774;52.192;4.584;2023-04-03T00:15:07;4.25;;;1.05;;
51686;SDS011;37774;52.192;4.584;2023-04-03T00:17:54;0.77;;;0.67;;
51686;SDS011;37774;52.192;4.584;2023-04-03T00:20:41;0.47;;;0.40;;
51686;SDS011;37774;52.192;4.584;2023-04-03T00:23:26;2.20;;;0.80;;
51686;SDS011;37774;52.192;4.584;2023-04-03T00:26:11;1.55;;;0.90;;
51686;SDS011;37774;52.192;4.584;2023-04-03T00:28:57;3.50;;;0.95;;
51686;SDS011;37774;52.192;4.584;2023-04-03T00:31:42;3.88;;;1.40;;
51686;SDS011;37774;52.192;4.584;2023-04-03T00:34:30;2.53;;;1.20;;
51686;SDS011;37774;52.192;4.584;2023-04-03T00:37:16;2.42;;;1.20;;
51686;SDS011;37774;52.192;4.584;2023-04-03T00:40:02;1.55;;;0.82;;
51686;SDS011;37774;52.192;4.584;2023-04-03T00:42:50;1.90;;;0.80;;
51686;SDS011;37774;52.192;4.584;2023-04-03T00:45:40;1.83;;;0.98;;
51686;SDS011;37774;52.192;4.584;2023-04-03T00:48:27;3.15;;;0.63;;
51686;SDS011;37774;52.192;4.584;2023-04-03T00:51:18;4.28;;;1.20;;
51686;SDS011;37774;52.192;4.584;2023-04-03T00:54:07;1.85;;;0.70;;
51686;SDS011;37774;52.192;4.584;2023-04-03T00:56:53;1.60;;;1.20;;
51686;SDS011;37774;52.192;4.584;2023-04-03T00:59:43;2.47;;;0.73;;
51686;SDS011;37774;52.192;4.584;2023-04-03T01:02:33;10.23;;;1.02;;
51686;SDS011;37774;52.192;4.584;2023-04-03T01:05:19;2.47;;;1.00;;
51686;SDS011;37774;52.192;4.584;2023-04-03T01:08:07;3.63;;;0.95;;
51686;SDS011;37774;52.192;4.584;2023-04-03T01:13:42;1.20;;;0.65;;
51686;SDS011;37774;52.192;4.584;2023-04-03T01:16:28;3.45;;;1.05;;
51686;SDS011;37774;52.192;4.584;2023-04-03T01:19:15;0.85;;;0.63;;
51686;SDS011;37774;52.192;4.584;2023-04-03T01:22:11;4.40;;;1.13;;
51686;SDS011;37774;52.192;4.584;2023-04-03T01:25:05;2.80;;;0.98;;
51686;SDS011;37774;52.192;4.584;2023-04-03T01:27:51;1.02;;;0.45;;
51686;SDS011;37774;52.192;4.584;2023-04-03T01:30:39;3.53;;;1.20;;
51686;SDS011;37774;52.192;4.584;2023-04-03T01:33:32;3.40;;;1.52;;
51686;SDS011;37774;52.192;4.584;2023-04-03T01:36:19;3.92;;;1.35;;
51686;SDS011;37774;52.192;4.584;2023-04-03T01:39:05;8.00;;;0.65;;
51686;SDS011;37774;52.192;4.584;2023-04-03T01:41:51;2.65;;;0.95;;
51686;SDS011;37774;52.192;4.584;2023-04-03T01:44:37;7.68;;;0.70;;
51686;SDS011;37774;52.192;4.584;2023-04-03T01:47:22;2.13;;;0.70;;
51686;SDS011;37774;52.192;4.584;2023-04-03T01:50:09;4.97;;;1.20;;
51686;SDS011;37774;52.192;4.584;2023-04-03T01:52:55;1.05;;;0.63;;
51686;SDS011;37774;52.192;4.584;2023-04-03T01:55:40;2.80;;;1.10;;
51686;SDS011;37774;52.192;4.584;2023-04-03T01:58:26;2.47;;;0.98;;
51686;SDS011;37774;52.192;4.584;2023-04-03T02:01:11;6.35;;;0.88;;
51686;SDS011;37774;52.192;4.584;2023-04-03T02:03:57;2.42;;;0.95;;
51686;SDS011;37774;52.192;4.584;2023-04-03T02:06:44;7.80;;;1.30;;
51686;SDS011;37774;52.192;4.584;2023-04-03T02:09:29;3.65;;;1.02;;
51686;SDS011;37774;52.192;4.584;2023-04-03T02:12:15;5.85;;;0.65;;
51686;SDS011;37774;52.192;4.584;2023-04-03T02:15:00;3.35;;;0.90;;
51686;SDS011;37774;52.192;4.584;2023-04-03T02:17:46;1.77;;;0.98;;
51686;SDS011;37774;52.192;4.584;2023-04-03T02:20:31;1.98;;;1.02;;
51686;SDS011;37774;52.192;4.584;2023-04-03T02:23:18;1.90;;;0.98;;
51686;SDS011;37774;52.192;4.584;2023-04-03T02:26:04;2.00;;;0.70;;
51686;SDS011;37774;52.192;4.584;2023-04-03T02:28:51;2.72;;;0.70;;
51686;SDS011;37774;52.192;4.584;2023-04-03T02:31:36;6.45;;;1.10;;
51686;SDS011;37774;52.192;4.584;2023-04-03T02:34:22;2.08;;;0.80;;
51686;SDS011;37774;52.192;4.584;2023-04-03T02:37:07;3.45;;;0.98;;
51686;SDS011;37774;52.192;4.584;2023-04-03T02:39:54;3.00;;;1.13;;
51686;SDS011;37774;52.192;4.584;2023-04-03T02:42:40;3.08;;;1.23;;
51686;SDS011;37774;52.192;4.584;2023-04-03T02:45:25;4.40;;;1.00;;
51686;SDS011;37774;52.192;4.584;2023-04-03T02:48:11;16.58;;;1.50;;
51686;SDS011;37774;52.192;4.584;2023-04-03T02:50:56;1.73;;;1.25;;
51686;SDS011;37774;52.192;4.584;2023-04-03T02:53:42;2.70;;;1.05;;
51686;SDS011;37774;52.192;4.584;2023-04-03T02:56:28;4.18;;;1.52;;
51686;SDS011;37774;52.192;4.584;2023-04-03T02:59:14;2.13;;;1.25;;
51686;SDS011;37774;52.192;4.584;2023-04-03T03:01:59;8.30;;;1.23;;
51686;SDS011;37774;52.192;4.584;2023-04-03T03:04:45;4.57;;;0.82;;
51686;SDS011;37774;52.192;4.584;2023-04-03T03:07:30;2.65;;;1.15;;
51686;SDS011;37774;52.192;4.584;2023-04-03T03:10:16;1.48;;;0.80;;
51686;SDS011;37774;52.192;4.584;2023-04-03T03:13:02;12.38;;;1.95;;
51686;SDS011;37774;52.192;4.584;2023-04-03T03:18:33;10.68;;;1.55;;
51686;SDS011;37774;52.192;4.584;2023-04-03T03:21:19;4.13;;;0.98;;
51686;SDS011;37774;52.192;4.584;2023-04-03T03:24:05;7.30;;;1.77;;
51686;SDS011;37774;52.192;4.584;2023-04-03T03:26:50;8.48;;;1.92;;
51686;SDS011;37774;52.192;4.584;2023-04-03T03:29:37;2.38;;;1.25;;
51686;SDS011;37774;52.192;4.584;2023-04-03T03:32:22;1.20;;;1.10;;
51686;SDS011;37774;52.192;4.584;2023-04-03T03:35:08;9.45;;;1.77;;
51686;SDS011;37774;52.192;4.584;2023-04-03T03:37:54;1.50;;;1.17;;
51686;SDS011;37774;52.192;4.584;2023-04-03T03:40:39;2.25;;;0.93;;
51686;SDS011;37774;52.192;4.584;2023-04-03T03:43:25;4.18;;;1.83;;
51686;SDS011;37774;52.192;4.584;2023-04-03T03:46:12;4.53;;;1.45;;
51686;SDS011;37774;52.192;4.584;2023-04-03T03:48:58;2.13;;;1.25;;
51686;SDS011;37774;52.192;4.584;2023-04-03T03:51:44;4.03;;;1.33;;
51686;SDS011;37774;52.192;4.584;2023-04-03T03:54:30;1.70;;;1.08;;
51686;SDS011;37774;52.192;4.584;2023-04-03T03:57:15;1.45;;;0.70;;
51686;SDS011;37774;52.192;4.584;2023-04-03T04:00:01;5.50;;;1.25;;
51686;SDS011;37774;52.192;4.584;2023-04-03T04:02:49;1.08;;;0.77;;
51686;SDS011;37774;52.192;4.584;2023-04-03T04:05:34;2.00;;;0.98;;
51686;SDS011;37774;52.192;4.584;2023-04-03T04:08:20;7.50;;;1.42;;
51686;SDS011;37774;52.192;4.584;2023-04-03T04:11:05;3.25;;;1.42;;
51686;SDS011;37774;52.192;4.584;2023-04-03T04:13:51;4.85;;;1.30;;
51686;SDS011;37774;52.192;4.584;2023-04-03T04:16:37;8.10;;;1.88;;
51686;SDS011;37774;52.192;4.584;2023-04-03T04:19:38;4.43;;;1.67;;
51686;SDS011;37774;52.192;4.584;2023-04-03T04:22:23;1.30;;;0.77;;
51686;SDS011;37774;52.192;4.584;2023-04-03T04:25:09;12.73;;;1.75;;
51686;SDS011;37774;52.192;4.584;2023-04-03T04:27:55;1.60;;;0.75;;
51686;SDS011;37774;52.192;4.584;2023-04-03T04:30:41;3.53;;;1.15;;
51686;SDS011;37774;52.192;4.584;2023-04-03T04:33:26;4.45;;;1.40;;
51686;SDS011;37774;52.192;4.584;2023-04-03T04:36:13;2.70;;;1.65;;
51686;SDS011;37774;52.192;4.584;2023-04-03T04:41:44;11.82;;;1.35;;
51686;SDS011;37774;52.192;4.584;2023-04-03T04:44:29;4.60;;;1.52;;
51686;SDS011;37774;52.192;4.584;2023-04-03T04:47:15;7.47;;;1.33;;
51686;SDS011;37774;52.192;4.584;2023-04-03T04:50:04;4.05;;;1.33;;
51686;SDS011;37774;52.192;4.584;2023-04-03T04:52:52;3.45;;;1.02;;
51686;SDS011;37774;52.192;4.584;2023-04-03T04:55:37;7.47;;;1.65;;
51686;SDS011;37774;52.192;4.584;2023-04-03T04:58:23;11.23;;;1.95;;
51686;SDS011;37774;52.192;4.584;2023-04-03T05:01:09;3.80;;;1.25;;
51686;SDS011;37774;52.192;4.584;2023-04-03T05:06:41;3.85;;;1.17;;
51686;SDS011;37774;52.192;4.584;2023-04-03T05:09:28;4.75;;;1.50;;
51686;SDS011;37774;52.192;4.584;2023-04-03T05:14:58;1.90;;;1.00;;
51686;SDS011;37774;52.192;4.584;2023-04-03T05:17:44;2.88;;;1.70;;
51686;SDS011;37774;52.192;4.584;2023-04-03T05:20:30;4.15;;;1.45;;
51686;SDS011;37774;52.192;4.584;2023-04-03T05:23:16;2.25;;;1.58;;
51686;SDS011;37774;52.192;4.584;2023-04-03T05:26:03;2.97;;;1.60;;
51686;SDS011;37774;52.192;4.584;2023-04-03T05:28:49;6.68;;;1.33;;
51686;SDS011;37774;52.192;4.584;2023-04-03T05:31:34;6.55;;;1.55;;
51686;SDS011;37774;52.192;4.584;2023-04-03T05:34:20;7.32;;;2.08;;
51686;SDS011;37774;52.192;4.584;2023-04-03T05:37:05;1.52;;;1.13;;
51686;SDS011;37774;52.192;4.584;2023-04-03T05:39:51;5.75;;;1.73;;
51686;SDS011;37774;52.192;4.584;2023-04-03T05:42:37;3.08;;;1.67;;
51686;SDS011;37774;52.192;4.584;2023-04-03T05:48:08;3.00;;;1.55;;
51686;SDS011;37774;52.192;4.584;2023-04-03T05:50:54;3.63;;;1.33;;
51686;SDS011;37774;52.192;4.584;2023-04-03T05:53:43;6.40;;;2.15;;
51686;SDS011;37774;52.192;4.584;2023-04-03T05:56:30;6.60;;;2.40;;
51686;SDS011;37774;52.192;4.584;2023-04-03T05:59:17;4.53;;;1.73;;
51686;SDS011;37774;52.192;4.584;2023-04-03T06:02:04;2.80;;;1.67;;
51686;SDS011;37774;52.192;4.584;2023-04-03T06:04:49;2.97;;;1.43;;
51686;SDS011;37774;52.192;4.584;2023-04-03T06:07:35;5.00;;;1.88;;
51686;SDS011;37774;52.192;4.584;2023-04-03T06:10:21;2.60;;;1.52;;
51686;SDS011;37774;52.192;4.584;2023-04-03T06:13:08;13.47;;;1.80;;
51686;SDS011;37774;52.192;4.584;2023-04-03T06:15:55;4.30;;;1.50;;
51686;SDS011;37774;52.192;4.584;2023-04-03T06:18:42;16.75;;;2.38;;
51686;SDS011;37774;52.192;4.584;2023-04-03T06:21:28;3.88;;;2.17;;
51686;SDS011;37774;52.192;4.584;2023-04-03T06:24:15;3.72;;;2.10;;
51686;SDS011;37774;52.192;4.584;2023-04-03T06:27:01;3.30;;;1.67;;
51686;SDS011;37774;52.192;4.584;2023-04-03T06:29:47;5.05;;;1.90;;
51686;SDS011;37774;52.192;4.584;2023-04-03T06:32:33;4.55;;;1.75;;
51686;SDS011;37774;52.192;4.584;2023-04-03T06:35:19;3.55;;;1.27;;
51686;SDS011;37774;52.192;4.584;2023-04-03T06:38:07;7.47;;;2.10;;
51686;SDS011;37774;52.192;4.584;2023-04-03T06:40:53;5.32;;;1.85;;
51686;SDS011;37774;52.192;4.584;2023-04-03T06:43:39;3.75;;;1.63;;
51686;SDS011;37774;52.192;4.584;2023-04-03T06:46:26;3.35;;;1.80;;
51686;SDS011;37774;52.192;4.584;2023-04-03T06:49:13;6.18;;;2.50;;
51686;SDS011;37774;52.192;4.584;2023-04-03T06:54:44;6.35;;;1.90;;
51686;SDS011;37774;52.192;4.584;2023-04-03T06:57:30;14.48;;;2.08;;
51686;SDS011;37774;52.192;4.584;2023-04-03T07:00:16;11.70;;;1.65;;
51686;SDS011;37774;52.192;4.584;2023-04-03T07:03:02;3.63;;;1.95;;
51686;SDS011;37774;52.192;4.584;2023-04-03T07:05:49;2.15;;;1.23;;
51686;SDS011;37774;52.192;4.584;2023-04-03T07:08:35;8.18;;;2.50;;
51686;SDS011;37774;52.192;4.584;2023-04-03T07:11:20;9.10;;;1.33;;
51686;SDS011;37774;52.192;4.584;2023-04-03T07:14:07;17.70;;;2.03;;
51686;SDS011;37774;52.192;4.584;2023-04-03T07:16:53;3.33;;;1.42;;
51686;SDS011;37774;52.192;4.584;2023-04-03T07:19:38;7.55;;;1.63;;
51686;SDS011;37774;52.192;4.584;2023-04-03T07:22:26;6.70;;;2.33;;
51686;SDS011;37774;52.192;4.584;2023-04-03T07:25:12;6.93;;;1.42;;
51686;SDS011;37774;52.192;4.584;2023-04-03T07:27:57;14.80;;;2.13;;
51686;SDS011;37774;52.192;4.584;2023-04-03T07:30:45;4.53;;;1.85;;
51686;SDS011;37774;52.192;4.584;2023-04-03T07:33:33;6.05;;;2.10;;
51686;SDS011;37774;52.192;4.584;2023-04-03T07:36:20;8.38;;;1.60;;
51686;SDS011;37774;52.192;4.584;2023-04-03T07:39:09;3.05;;;1.52;;
51686;SDS011;37774;52.192;4.584;2023-04-03T07:41:55;8.00;;;2.28;;
51686;SDS011;37774;52.192;4.584;2023-04-03T07:44:41;3.83;;;2.10;;
51686;SDS011;37774;52.192;4.584;2023-04-03T07:47:27;12.35;;;2.40;;
51686;SDS011;37774;52.192;4.584;2023-04-03T07:50:14;7.80;;;1.58;;
51686;SDS011;37774;52.192;4.584;2023-04-03T07:53:00;5.07;;;1.95;;
51686;SDS011;37774;52.192;4.584;2023-04-03T07:55:48;3.85;;;1.42;;
51686;SDS011;37774;52.192;4.584;2023-04-03T07:58:39;8.48;;;1.65;;
51686;SDS011;37774;52.192;4.584;2023-04-03T08:01:24;5.03;;;1.92;;
51686;SDS011;37774;52.192;4.584;2023-04-03T08:04:10;15.45;;;1.80;;
51686;SDS011;37774;52.192;4.584;2023-04-03T08:06:56;8.20;;;1.55;;
51686;SDS011;37774;52.192;4.584;2023-04-03T08:09:42;4.82;;;1.75;;
51686;SDS011;37774;52.192;4.584;2023-04-03T08:12:30;10.85;;;1.50;;
51686;SDS011;37774;52.192;4.584;2023-04-03T08:15:18;3.75;;;1.55;;
51686;SDS011;37774;52.192;4.584;2023-04-03T08:18:05;8.88;;;1.40;;
51686;SDS011;37774;52.192;4.584;2023-04-03T08:20:51;5.30;;;1.30;;
51686;SDS011;37774;52.192;4.584;2023-04-03T08:23:37;5.65;;;1.23;;
51686;SDS011;37774;52.192;4.584;2023-04-03T08:26:25;3.15;;;0.88;;
51686;SDS011;37774;52.192;4.584;2023-04-03T08:29:16;8.75;;;1.85;;
51686;SDS011;37774;52.192;4.584;2023-04-03T08:32:05;3.42;;;1.35;;
51686;SDS011;37774;52.192;4.584;2023-04-03T08:34:51;6.95;;;1.30;;
51686;SDS011;37774;52.192;4.584;2023-04-03T08:37:37;5.93;;;1.23;;
51686;SDS011;37774;52.192;4.584;2023-04-03T08:40:26;3.50;;;1.30;;
51686;SDS011;37774;52.192;4.584;2023-04-03T08:43:23;1.98;;;1.17;;
51686;SDS011;37774;52.192;4.584;2023-04-03T08:46:20;2.07;;;1.03;;
51686;SDS011;37774;52.192;4.584;2023-04-03T08:49:10;3.10;;;1.15;;
51686;SDS011;37774;52.192;4.584;2023-04-03T08:52:08;11.63;;;1.50;;
51686;SDS011;37774;52.192;4.584;2023-04-03T08:54:59;1.73;;;0.82;;
51686;SDS011;37774;52.192;4.584;2023-04-03T08:57:47;8.75;;;2.22;;
51686;SDS011;37774;52.192;4.584;2023-04-03T09:00:37;5.05;;;1.15;;
51686;SDS011;37774;52.192;4.584;2023-04-03T09:03:32;8.32;;;1.02;;
51686;SDS011;37774;52.192;4.584;2023-04-03T09:06:24;3.00;;;1.08;;
51686;SDS011;37774;52.192;4.584;2023-04-03T09:09:19;5.97;;;1.15;;
51686;SDS011;37774;52.192;4.584;2023-04-03T09:12:17;4.38;;;0.90;;
51686;SDS011;37774;52.192;4.584;2023-04-03T09:15:09;1.33;;;0.63;;
51686;SDS011;37774;52.192;4.584;2023-04-03T09:18:05;2.03;;;0.90;;
51686;SDS011;37774;52.192;4.584;2023-04-03T09:21:01;4.35;;;1.15;;
51686;SDS011;37774;52.192;4.584;2023-04-03T09:23:53;0.63;;;0.60;;
51686;SDS011;37774;52.192;4.584;2023-04-03T09:26:43;4.25;;;0.98;;
51686;SDS011;37774;52.192;4.584;2023-04-03T09:29:35;1.42;;;0.70;;
51686;SDS011;37774;52.192;4.584;2023-04-03T09:32:27;2.13;;;0.50;;
51686;SDS011;37774;52.192;4.584;2023-04-03T09:35:23;2.70;;;0.98;;
51686;SDS011;37774;52.192;4.584;2023-04-03T09:38:19;1.55;;;0.38;;
51686;SDS011;37774;52.192;4.584;2023-04-03T09:41:13;1.13;;;0.70;;
51686;SDS011;37774;52.192;4.584;2023-04-03T09:44:02;1.20;;;0.93;;
51686;SDS011;37774;52.192;4.584;2023-04-03T09:46:48;4.47;;;0.65;;
51686;SDS011;37774;52.192;4.584;2023-04-03T09:49:34;2.30;;;0.80;;
51686;SDS011;37774;52.192;4.584;2023-04-03T09:52:20;2.67;;;0.60;;
51686;SDS011;37774;52.192;4.584;2023-04-03T09:55:13;2.42;;;0.60;;
51686;SDS011;37774;52.192;4.584;2023-04-03T09:58:01;1.63;;;0.57;;
51686;SDS011;37774;52.192;4.584;2023-04-03T10:00:53;2.97;;;0.77;;
51686;SDS011;37774;52.192;4.584;2023-04-03T10:03:40;1.77;;;0.50;;
51686;SDS011;37774;52.192;4.584;2023-04-03T10:06:31;2.65;;;0.73;;
51686;SDS011;37774;52.192;4.584;2023-04-03T10:09:19;1.52;;;0.57;;
51686;SDS011;37774;52.192;4.584;2023-04-03T10:12:10;0.40;;;0.20;;
51686;SDS011;37774;52.192;4.584;2023-04-03T10:14:58;1.55;;;0.65;;
51686;SDS011;37774;52.192;4.584;2023-04-03T10:17:53;0.63;;;0.40;;
51686;SDS011;37774;52.192;4.584;2023-04-03T10:20:45;0.60;;;0.43;;
51686;SDS011;37774;52.192;4.584;2023-04-03T10:23:37;2.47;;;0.88;;
51686;SDS011;37774;52.192;4.584;2023-04-03T10:26:31;1.85;;;0.63;;
51686;SDS011;37774;52.192;4.584;2023-04-03T10:29:40;2.05;;;0.70;;
51686;SDS011;37774;52.192;4.584;2023-04-03T10:32:42;1.55;;;0.40;;
51686;SDS011;37774;52.192;4.584;2023-04-03T10:35:39;6.03;;;0.80;;
51686;SDS011;37774;52.192;4.584;2023-04-03T10:38:37;0.70;;;0.70;;
51686;SDS011;37774;52.192;4.584;2023-04-03T10:41:33;4.18;;;0.65;;
51686;SDS011;37774;52.192;4.584;2023-04-03T10:44:30;1.45;;;0.60;;
51686;SDS011;37774;52.192;4.584;2023-04-03T10:47:28;2.20;;;0.45;;
51686;SDS011;37774;52.192;4.584;2023-04-03T10:50:25;1.42;;;0.60;;
51686;SDS011;37774;52.192;4.584;2023-04-03T10:53:18;1.48;;;0.38;;
51686;SDS011;37774;52.192;4.584;2023-04-03T10:56:12;0.75;;;0.30;;
51686;SDS011;37774;52.192;4.584;2023-04-03T10:59:02;1.90;;;0.50;;
51686;SDS011;37774;52.192;4.584;2023-04-03T11:01:59;0.85;;;0.30;;
51686;SDS011;37774;52.192;4.584;2023-04-03T11:04:52;1.02;;;0.50;;
51686;SDS011;37774;52.192;4.584;2023-04-03T11:07:42;0.90;;;0.40;;
51686;SDS011;37774;52.192;4.584;2023-04-03T11:10:35;3.67;;;0.30;;
51686;SDS011;37774;52.192;4.584;2023-04-03T11:13:27;3.75;;;0.20;;
51686;SDS011;37774;52.192;4.584;2023-04-03T11:16:19;0.20;;;0.15;;
51686;SDS011;37774;52.192;4.584;2023-04-03T11:19:10;0.28;;;0.25;;
51686;SDS011;37774;52.192;4.584;2023-04-03T11:22:08;2.03;;;0.65;;
51686;SDS011;37774;52.192;4.584;2023-04-03T11:27:52;0.55;;;0.30;;
51686;SDS011;37774;52.192;4.584;2023-04-03T11:30:43;0.90;;;0.28;;
51686;SDS011;37774;52.192;4.584;2023-04-03T11:33:37;1.17;;;0.50;;
51686;SDS011;37774;52.192;4.584;2023-04-03T11:36:30;0.88;;;0.22;;
51686;SDS011;37774;52.192;4.584;2023-04-03T11:39:21;2.05;;;0.75;;
51686;SDS011;37774;52.192;4.584;2023-04-03T11:42:13;1.50;;;0.55;;
51686;SDS011;37774;52.192;4.584;2023-04-03T11:45:17;4.22;;;0.50;;
51686;SDS011;37774;52.192;4.584;2023-04-03T11:51:38;0.22;;;0.20;;
51686;SDS011;37774;52.192;4.584;2023-04-03T11:57:49;0.50;;;0.30;;
51686;SDS011;37774;52.192;4.584;2023-04-03T12:00:59;4.85;;;0.35;;
51686;SDS011;37774;52.192;4.584;2023-04-03T12:10:17;1.08;;;0.30;;
51686;SDS011;37774;52.192;4.584;2023-04-03T12:13:12;1.73;;;0.43;;
51686;SDS011;37774;52.192;4.584;2023-04-03T12:16:00;0.82;;;0.25;;
51686;SDS011;37774;52.192;4.584;2023-04-03T12:18:58;2.25;;;0.20;;
51686;SDS011;37774;52.192;4.584;2023-04-03T12:24:58;5.40;;;0.80;;
51686;SDS011;37774;52.192;4.584;2023-04-03T12:28:24;1.20;;;0.40;;
51686;SDS011;37774;52.192;4.584;2023-04-03T12:31:15;2.28;;;0.30;;
51686;SDS011;37774;52.192;4.584;2023-04-03T12:34:11;1.42;;;0.65;;
51686;SDS011;37774;52.192;4.584;2023-04-03T12:37:07;1.10;;;0.50;;
51686;SDS011;37774;52.192;4.584;2023-04-03T12:40:08;7.18;;;0.65;;
51686;SDS011;37774;52.192;4.584;2023-04-03T12:43:07;1.88;;;0.47;;
51686;SDS011;37774;52.192;4.584;2023-04-03T12:46:09;1.20;;;0.40;;
51686;SDS011;37774;52.192;4.584;2023-04-03T12:48:59;1.98;;;0.68;;
51686;SDS011;37774;52.192;4.584;2023-04-03T12:51:45;2.05;;;0.32;;
51686;SDS011;37774;52.192;4.584;2023-04-03T12:54:32;2.17;;;0.43;;
51686;SDS011;37774;52.192;4.584;2023-04-03T12:57:25;1.10;;;0.38;;
51686;SDS011;37774;52.192;4.584;2023-04-03T13:00:19;1.98;;;0.38;;
51686;SDS011;37774;52.192;4.584;2023-04-03T13:03:37;1.58;;;0.38;;
51686;SDS011;37774;52.192;4.584;2023-04-03T13:06:27;1.75;;;0.50;;
51686;SDS011;37774;52.192;4.584;2023-04-03T13:09:18;2.70;;;0.30;;
51686;SDS011;37774;52.192;4.584;2023-04-03T13:12:10;0.65;;;0.50;;
51686;SDS011;37774;52.192;4.584;2023-04-03T13:14:59;2.38;;;0.43;;
51686;SDS011;37774;52.192;4.584;2023-04-03T13:17:57;0.20;;;0.20;;
51686;SDS011;37774;52.192;4.584;2023-04-03T13:20:44;1.23;;;0.68;;
51686;SDS011;37774;52.192;4.584;2023-04-03T13:23:34;1.77;;;0.50;;
51686;SDS011;37774;52.192;4.584;2023-04-03T13:26:29;3.50;;;1.02;;
51686;SDS011;37774;52.192;4.584;2023-04-03T13:29:20;1.10;;;0.50;;
51686;SDS011;37774;52.192;4.584;2023-04-03T13:32:13;2.05;;;0.35;;
51686;SDS011;37774;52.192;4.584;2023-04-03T13:38:23;1.77;;;0.40;;
51686;SDS011;37774;52.192;4.584;2023-04-03T13:41:23;4.25;;;0.73;;
51686;SDS011;37774;52.192;4.584;2023-04-03T13:44:18;2.05;;;0.60;;
51686;SDS011;37774;52.192;4.584;2023-04-03T13:47:16;5.32;;;0.70;;
51686;SDS011;37774;52.192;4.584;2023-04-03T13:50:13;0.85;;;0.45;;
51686;SDS011;37774;52.192;4.584;2023-04-03T13:53:03;0.50;;;0.50;;
51686;SDS011;37774;52.192;4.584;2023-04-03T13:55:59;4.63;;;0.65;;
51686;SDS011;37774;52.192;4.584;2023-04-03T13:58:57;2.22;;;0.73;;
51686;SDS011;37774;52.192;4.584;2023-04-03T14:01:46;2.53;;;0.77;;
51686;SDS011;37774;52.192;4.584;2023-04-03T14:04:45;2.60;;;0.47;;
51686;SDS011;37774;52.192;4.584;2023-04-03T14:07:41;2.47;;;0.73;;
51686;SDS011;37774;52.192;4.584;2023-04-03T14:10:27;2.05;;;0.80;;
51686;SDS011;37774;52.192;4.584;2023-04-03T14:13:16;1.10;;;0.40;;
51686;SDS011;37774;52.192;4.584;2023-04-03T14:16:05;1.63;;;0.35;;
51686;SDS011;37774;52.192;4.584;2023-04-03T14:18:51;0.95;;;0.57;;
51686;SDS011;37774;52.192;4.584;2023-04-03T14:21:37;1.08;;;0.63;;
51686;SDS011;37774;52.192;4.584;2023-04-03T14:24:22;3.83;;;0.70;;
51686;SDS011;37774;52.192;4.584;2023-04-03T14:27:11;0.85;;;0.40;;
51686;SDS011;37774;52.192;4.584;2023-04-03T14:30:04;2.95;;;0.63;;
51686;SDS011;37774;52.192;4.584;2023-04-03T14:32:53;1.92;;;0.65;;
51686;SDS011;37774;52.192;4.584;2023-04-03T14:35:40;1.70;;;0.60;;
51686;SDS011;37774;52.192;4.584;2023-04-03T14:38:27;3.00;;;0.50;;
51686;SDS011;37774;52.192;4.584;2023-04-03T14:41:15;2.03;;;0.77;;
51686;SDS011;37774;52.192;4.584;2023-04-03T14:46:48;1.73;;;0.50;;
51686;SDS011;37774;52.192;4.584;2023-04-03T14:49:35;3.67;;;0.70;;
51686;SDS011;37774;52.192;4.584;2023-04-03T14:52:21;3.63;;;0.60;;
51686;SDS011;37774;52.192;4.584;2023-04-03T14:55:11;5.07;;;0.80;;
51686;SDS011;37774;52.192;4.584;2023-04-03T14:57:57;1.77;;;0.57;;
51686;SDS011;37774;52.192;4.584;2023-04-03T15:00:43;2.08;;;1.00;;
51686;SDS011;37774;52.192;4.584;2023-04-03T15:03:30;0.80;;;0.53;;
51686;SDS011;37774;52.192;4.584;2023-04-03T15:06:18;3.08;;;0.60;;
51686;SDS011;37774;52.192;4.584;2023-04-03T15:09:05;0.85;;;0.68;;
51686;SDS011;37774;52.192;4.584;2023-04-03T15:11:56;4.38;;;1.27;;
51686;SDS011;37774;52.192;4.584;2023-04-03T15:14:43;9.45;;;0.73;;
51686;SDS011;37774;52.192;4.584;2023-04-03T15:17:29;2.78;;;0.63;;
51686;SDS011;37774;52.192;4.584;2023-04-03T15:20:17;3.30;;;1.20;;
51686;SDS011;37774;52.192;4.584;2023-04-03T15:23:05;2.30;;;1.02;;
51686;SDS011;37774;52.192;4.584;2023-04-03T15:25:51;1.98;;;0.73;;
51686;SDS011;37774;52.192;4.584;2023-04-03T15:28:39;0.82;;;0.40;;
51686;SDS011;37774;52.192;4.584;2023-04-03T15:31:27;1.75;;;0.88;;
51686;SDS011;37774;52.192;4.584;2023-04-03T15:34:13;2.78;;;0.73;;
51686;SDS011;37774;52.192;4.584;2023-04-03T15:37:01;1.30;;;0.60;;
51686;SDS011;37774;52.192;4.584;2023-04-03T15:42:32;1.63;;;0.90;;
51686;SDS011;37774;52.192;4.584;2023-04-03T15:45:18;1.45;;;0.73;;
51686;SDS011;37774;52.192;4.584;2023-04-03T15:48:04;1.73;;;0.63;;
51686;SDS011;37774;52.192;4.584;2023-04-03T15:50:51;2.53;;;0.65;;
51686;SDS011;37774;52.192;4.584;2023-04-03T15:53:38;2.75;;;0.80;;
51686;SDS011;37774;52.192;4.584;2023-04-03T15:56:24;1.15;;;0.55;;
51686;SDS011;37774;52.192;4.584;2023-04-03T15:59:09;4.03;;;0.90;;
51686;SDS011;37774;52.192;4.584;2023-04-03T16:01:56;6.05;;;0.77;;
51686;SDS011;37774;52.192;4.584;2023-04-03T16:04:44;1.55;;;0.75;;
51686;SDS011;37774;52.192;4.584;2023-04-03T16:07:31;1.10;;;0.70;;
51686;SDS011;37774;52.192;4.584;2023-04-03T16:10:19;2.35;;;0.80;;
51686;SDS011;37774;52.192;4.584;2023-04-03T16:13:08;10.88;;;0.98;;
51686;SDS011;37774;52.192;4.584;2023-04-03T16:15:54;1.40;;;0.65;;
51686;SDS011;37774;52.192;4.584;2023-04-03T16:18:40;1.80;;;0.88;;
51686;SDS011;37774;52.192;4.584;2023-04-03T16:21:26;3.13;;;0.73;;
51686;SDS011;37774;52.192;4.584;2023-04-03T16:24:19;1.15;;;0.82;;
51686;SDS011;37774;52.192;4.584;2023-04-03T16:30:47;3.75;;;0.75;;
51686;SDS011;37774;52.192;4.584;2023-04-03T16:33:34;9.30;;;0.90;;
51686;SDS011;37774;52.192;4.584;2023-04-03T16:36:20;1.85;;;1.02;;
51686;SDS011;37774;52.192;4.584;2023-04-03T16:39:06;3.30;;;0.70;;
51686;SDS011;37774;52.192;4.584;2023-04-03T16:41:53;3.72;;;1.58;;
51686;SDS011;37774;52.192;4.584;2023-04-03T16:44:50;2.25;;;0.80;;
51686;SDS011;37774;52.192;4.584;2023-04-03T16:47:57;3.63;;;0.73;;
51686;SDS011;37774;52.192;4.584;2023-04-03T16:53:36;0.57;;;0.30;;
51686;SDS011;37774;52.192;4.584;2023-04-03T16:56:22;2.00;;;0.73;;
51686;SDS011;37774;52.192;4.584;2023-04-03T17:02:28;3.30;;;0.77;;
51686;SDS011;37774;52.192;4.584;2023-04-03T17:05:29;3.30;;;1.25;;
51686;SDS011;37774;52.192;4.584;2023-04-03T17:08:15;5.15;;;1.35;;
51686;SDS011;37774;52.192;4.584;2023-04-03T17:11:09;0.90;;;0.47;;
51686;SDS011;37774;52.192;4.584;2023-04-03T17:14:02;3.45;;;0.60;;
51686;SDS011;37774;52.192;4.584;2023-04-03T17:16:47;2.70;;;0.65;;
51686;SDS011;37774;52.192;4.584;2023-04-03T17:19:42;1.80;;;0.80;;
51686;SDS011;37774;52.192;4.584;2023-04-03T17:22:36;2.83;;;0.93;;
51686;SDS011;37774;52.192;4.584;2023-04-03T17:25:33;9.65;;;1.83;;
51686;SDS011;37774;52.192;4.584;2023-04-03T17:28:21;2.78;;;1.27;;
51686;SDS011;37774;52.192;4.584;2023-04-03T17:31:17;2.50;;;0.52;;
51686;SDS011;37774;52.192;4.584;2023-04-03T17:34:14;1.63;;;0.50;;
51686;SDS011;37774;52.192;4.584;2023-04-03T17:37:01;4.63;;;0.93;;
51686;SDS011;37774;52.192;4.584;2023-04-03T17:39:47;1.42;;;0.80;;
51686;SDS011;37774;52.192;4.584;2023-04-03T17:42:32;2.10;;;0.75;;
51686;SDS011;37774;52.192;4.584;2023-04-03T17:45:18;0.70;;;0.43;;
51686;SDS011;37774;52.192;4.584;2023-04-03T17:48:04;2.55;;;0.68;;
51686;SDS011;37774;52.192;4.584;2023-04-03T17:50:50;12.38;;;1.00;;
51686;SDS011;37774;52.192;4.584;2023-04-03T17:53:38;0.90;;;0.43;;
51686;SDS011;37774;52.192;4.584;2023-04-03T17:56:25;2.47;;;0.95;;